createdAt,value
2018-11-26T00:00:36.471Z,148.47
2018-11-26T00:03:09.386Z,148.53
2018-11-26T00:05:38.633Z,159.77
2018-11-26T00:08:11.484Z,121.87
2018-11-26T00:10:50.879Z,167.67
2018-11-26T00:13:19.386Z,159.33
2018-11-26T00:15:48.765Z,155.47
2018-11-26T00:18:17.243Z,127.73
2018-11-26T00:20:45.781Z,159.27
2018-11-26T00:23:14.326Z,150.30
2018-11-26T00:25:42.918Z,111.07
2018-11-26T00:28:11.454Z,120.13
2018-11-26T00:30:40.171Z,166.20
2018-11-26T00:33:08.707Z,146.20
2018-11-26T00:35:37.262Z,166.13
2018-11-26T00:38:05.890Z,150.40
2018-11-26T00:40:34.365Z,143.27
2018-11-26T00:43:02.953Z,121.03
2018-11-26T00:45:31.509Z,160.60
2018-11-26T00:48:00.066Z,155.27
2018-11-26T00:50:28.534Z,144.27
2018-11-26T00:52:57.149Z,115.47
2018-11-26T00:55:25.679Z,163.93
2018-11-26T00:57:54.165Z,132.57
2018-11-26T01:00:22.772Z,156.60
2018-11-26T01:02:51.300Z,165.53
2018-11-26T01:05:36.521Z,117.00
2018-11-26T01:08:05.250Z,163.87
2018-11-26T01:10:33.827Z,168.27
2018-11-26T01:13:02.353Z,137.90
2018-11-26T01:15:30.879Z,131.23
2018-11-26T01:17:59.374Z,135.67
2018-11-26T01:20:27.874Z,87.60
2018-11-26T01:22:56.373Z,150.07
2018-11-26T01:25:24.882Z,92.00
2018-11-26T01:27:53.383Z,120.63
2018-11-26T01:30:21.934Z,120.10
2018-11-26T01:32:50.506Z,146.57
2018-11-26T01:35:19.076Z,165.40
2018-11-26T01:37:47.566Z,161.93
2018-11-26T01:40:21.572Z,126.90
2018-11-26T01:42:50.385Z,110.33
2018-11-26T01:45:19.005Z,154.27
2018-11-26T01:47:47.544Z,128.80
2018-11-26T01:50:16.045Z,149.10
2018-11-26T01:52:44.554Z,179.97
2018-11-26T01:55:13.050Z,120.33
2018-11-26T01:57:41.606Z,146.73
2018-11-26T02:00:14.742Z,151.13
2018-11-26T02:02:43.455Z,150.50
2018-11-26T02:05:12.178Z,113.40
2018-11-26T02:07:40.674Z,161.83
2018-11-26T02:10:12.376Z,163.83
2018-11-26T02:12:40.930Z,159.60
2018-11-26T02:15:19.640Z,131.40
2018-11-26T02:17:48.250Z,119.20
2018-11-26T02:20:16.802Z,135.63
2018-11-26T02:22:45.286Z,142.50
2018-11-26T02:25:13.807Z,169.93
2018-11-26T02:27:42.359Z,171.33
2018-11-26T02:30:10.932Z,167.80
2018-11-26T02:32:39.386Z,168.90
2018-11-26T02:35:08.560Z,156.05
2018-11-26T02:37:37.123Z,159.90
2018-11-26T02:40:07.376Z,127.07
2018-11-26T02:42:35.929Z,176.10
2018-11-26T02:45:04.769Z,123.93
2018-11-26T02:47:33.262Z,148.57
2018-11-26T02:50:01.814Z,131.40
2018-11-26T02:52:30.350Z,140.37
2018-11-26T02:54:58.899Z,118.67
2018-11-26T02:57:27.422Z,117.13
2018-11-26T02:59:55.958Z,141.17
2018-11-26T03:02:24.483Z,174.10
2018-11-26T03:04:53.018Z,182.50
2018-11-26T03:07:21.530Z,127.30
2018-11-26T03:09:50.088Z,135.93
2018-11-26T03:12:18.615Z,156.23
2018-11-26T03:14:47.200Z,113.00
2018-11-26T03:17:15.698Z,141.50
2018-11-26T03:19:44.203Z,156.57
2018-11-26T03:22:12.759Z,173.07
2018-11-26T03:24:41.282Z,126.73
2018-11-26T03:27:09.762Z,157.47
2018-11-26T03:29:38.280Z,166.07
2018-11-26T03:32:06.866Z,122.70
2018-11-26T03:34:35.421Z,158.50
2018-11-26T03:37:03.946Z,164.40
2018-11-26T03:39:32.469Z,145.80
2018-11-26T03:42:00.957Z,167.90
2018-11-26T03:44:29.471Z,100.23
2018-11-26T03:46:57.930Z,159.73
2018-11-26T03:49:26.437Z,139.10
2018-11-26T03:51:55.027Z,167.83
2018-11-26T03:54:23.569Z,147.70
2018-11-26T03:56:52.277Z,104.97
2018-11-26T03:59:20.786Z,94.63
2018-11-26T04:01:49.261Z,141.40
2018-11-26T04:04:17.851Z,125.80
2018-11-26T04:06:46.383Z,135.63
2018-11-26T04:09:14.898Z,167.87
2018-11-26T04:11:43.454Z,85.65
2018-11-26T04:14:11.992Z,107.43
2018-11-26T04:16:40.697Z,137.73
2018-11-26T04:19:09.203Z,147.83
2018-11-26T04:21:37.668Z,115.63
2018-11-26T04:24:06.588Z,152.20
2018-11-26T04:26:35.154Z,108.63
2018-11-26T04:29:03.668Z,111.57
2018-11-26T04:31:32.989Z,141.77
2018-11-26T04:34:01.658Z,135.77
2018-11-26T04:36:30.143Z,138.22
2018-11-26T04:38:58.856Z,120.33
2018-11-26T04:41:27.352Z,120.47
2018-11-26T04:43:55.873Z,110.77
2018-11-26T04:46:24.409Z,142.03
2018-11-26T04:48:52.941Z,129.90
2018-11-26T04:51:21.585Z,113.10
2018-11-26T04:53:50.115Z,107.40
2018-11-26T04:56:18.610Z,121.27
2018-11-26T04:58:47.154Z,137.97
2018-11-26T05:01:15.656Z,117.07
2018-11-26T05:03:44.322Z,121.27
2018-11-26T05:06:12.887Z,94.40
2018-11-26T05:08:41.475Z,93.70
2018-11-26T05:11:10.051Z,133.23
2018-11-26T05:13:38.572Z,98.20
2018-11-26T05:16:07.987Z,89.37
2018-11-26T05:18:36.558Z,111.20
2018-11-26T05:21:05.176Z,122.93
2018-11-26T05:23:33.705Z,115.63
2018-11-26T05:26:02.193Z,118.00
2018-11-26T05:28:30.698Z,85.17
2018-11-26T05:30:59.199Z,126.17
2018-11-26T05:33:27.743Z,96.23
2018-11-26T05:35:56.268Z,123.72
2018-11-26T05:38:25.882Z,141.67
2018-11-26T05:40:54.552Z,127.87
2018-11-26T05:43:23.061Z,112.83
2018-11-26T05:45:51.599Z,89.97
2018-11-26T05:48:20.079Z,114.47
2018-11-26T05:50:48.607Z,119.87
2018-11-26T05:53:17.173Z,123.60
2018-11-26T05:55:45.690Z,110.70
2018-11-26T05:58:14.192Z,90.77
2018-11-26T06:00:42.765Z,127.60
2018-11-26T06:03:11.266Z,102.73
2018-11-26T06:05:39.849Z,128.13
2018-11-26T06:08:08.439Z,115.70
2018-11-26T06:10:36.927Z,126.70
2018-11-26T06:13:06.353Z,89.33
2018-11-26T06:15:35.045Z,122.97
2018-11-26T06:18:03.561Z,109.60
2018-11-26T06:20:32.207Z,122.43
2018-11-26T06:23:00.832Z,96.53
2018-11-26T06:25:29.336Z,89.47
2018-11-26T06:27:57.989Z,73.13
2018-11-26T06:30:26.545Z,87.93
2018-11-26T06:32:55.065Z,106.33
2018-11-26T06:35:24.159Z,85.37
2018-11-26T06:37:52.711Z,95.97
2018-11-26T06:40:21.254Z,76.80
2018-11-26T06:42:49.819Z,101.80
2018-11-26T06:45:20.303Z,111.33
2018-11-26T06:47:48.839Z,83.67
2018-11-26T06:50:18.571Z,104.13
2018-11-26T06:52:47.140Z,117.37
2018-11-26T06:55:16.774Z,74.00
2018-11-26T06:57:45.349Z,104.83
2018-11-26T07:00:15.981Z,122.87
2018-11-26T07:02:44.538Z,118.00
2018-11-26T07:05:14.402Z,117.33
2018-11-26T07:07:42.984Z,98.07
2018-11-26T07:10:12.383Z,101.23
2018-11-26T07:12:41.240Z,88.17
2018-11-26T07:15:15.599Z,102.13
2018-11-26T07:17:44.170Z,87.50
2018-11-26T07:20:14.574Z,111.57
2018-11-26T07:22:43.110Z,122.20
2018-11-26T07:25:13.767Z,129.47
2018-11-26T07:27:42.795Z,113.57
2018-11-26T07:30:16.477Z,92.30
2018-11-26T07:32:45.195Z,110.53
2018-11-26T07:35:14.288Z,98.53
2018-11-26T07:37:42.973Z,90.60
2018-11-26T07:40:17.513Z,118.33
2018-11-26T07:42:52.496Z,128.00
2018-11-26T07:45:21.100Z,101.30
2018-11-26T07:47:49.759Z,96.47
2018-11-26T07:50:18.466Z,128.57
2018-11-26T07:52:46.964Z,78.37
2018-11-26T07:55:19.396Z,82.67
2018-11-26T07:57:47.981Z,108.07
2018-11-26T08:00:17.550Z,70.33
2018-11-26T08:02:46.451Z,77.07
2018-11-26T08:05:16.046Z,107.23
2018-11-26T08:07:44.779Z,137.17
2018-11-26T08:10:14.347Z,106.60
2018-11-26T08:12:43.017Z,112.17
2018-11-26T08:15:12.954Z,123.20
2018-11-26T08:17:41.627Z,105.27
2018-11-26T08:20:10.548Z,104.77
2018-11-26T08:22:39.048Z,120.70
2018-11-26T08:25:24.284Z,70.80
2018-11-26T08:27:53.037Z,110.47
2018-11-26T08:30:23.594Z,63.53
2018-11-26T08:32:53.397Z,118.27
2018-11-26T08:35:21.953Z,97.27
2018-11-26T08:37:55.625Z,81.53
2018-11-26T08:40:29.024Z,92.77
2018-11-26T08:43:15.572Z,74.53
2018-11-26T08:45:51.340Z,80.13
2018-11-26T08:48:25.155Z,83.03
2018-11-26T08:50:53.816Z,64.73
2018-11-26T08:53:22.573Z,94.20
2018-11-26T08:55:51.164Z,81.33
2018-11-26T08:58:19.783Z,86.13
2018-11-26T09:00:52.465Z,75.90
2018-11-26T09:03:21.129Z,60.40
2018-11-26T09:05:56.002Z,72.47
2018-11-26T09:08:24.598Z,81.20
2018-11-26T09:10:53.144Z,61.67
2018-11-26T09:13:21.695Z,67.17
2018-11-26T09:15:51.115Z,82.77
2018-11-26T09:18:19.841Z,76.77
2018-11-26T09:20:48.328Z,66.13
2018-11-26T09:23:16.861Z,75.40
2018-11-26T09:25:45.392Z,64.63
2018-11-26T09:28:14.036Z,103.50
2018-11-26T09:30:42.857Z,80.37
2018-11-26T09:33:11.428Z,58.77
2018-11-26T09:35:39.962Z,53.57
2018-11-26T09:38:08.571Z,60.20
2018-11-26T09:40:37.147Z,61.37
2018-11-26T09:43:06.692Z,65.70
2018-11-26T09:45:39.996Z,65.90
2018-11-26T09:48:04.186Z,49.50
2018-11-26T09:50:32.719Z,53.57
2018-11-26T09:53:01.208Z,50.00
2018-11-26T09:55:29.765Z,51.57
2018-11-26T09:57:58.415Z,55.20
2018-11-26T10:00:26.936Z,67.70
2018-11-26T10:02:55.513Z,58.53
2018-11-26T10:05:25.311Z,65.03
2018-11-26T10:07:53.863Z,51.40
2018-11-26T10:10:22.420Z,52.57
2018-11-26T10:12:51.103Z,58.57
2018-11-26T10:15:24.471Z,59.03
2018-11-26T10:17:53.170Z,62.40
2018-11-26T10:20:21.730Z,63.83
2018-11-26T10:22:51.162Z,58.67
2018-11-26T10:25:21.417Z,53.43
2018-11-26T10:27:50.066Z,46.23
2018-11-26T10:30:19.956Z,48.50
2018-11-26T10:32:49.359Z,60.53
2018-11-26T10:35:18.692Z,50.40
2018-11-26T10:37:48.900Z,60.70
2018-11-26T10:40:19.408Z,44.10
2018-11-26T10:42:47.988Z,64.70
2018-11-26T10:45:17.566Z,45.23
2018-11-26T10:47:46.110Z,64.87
2018-11-26T10:50:16.645Z,52.37
2018-11-26T10:52:47.471Z,62.40
2018-11-26T10:55:18.316Z,45.57
2018-11-26T10:57:46.852Z,54.00
2018-11-26T11:00:21.323Z,63.93
2018-11-26T11:02:50.221Z,71.07
2018-11-26T11:05:18.803Z,40.37
2018-11-26T11:07:47.344Z,54.50
2018-11-26T11:10:26.413Z,57.80
2018-11-26T11:12:55.067Z,61.53
2018-11-26T11:15:23.600Z,57.57
2018-11-26T11:17:52.113Z,48.27
2018-11-26T11:20:23.979Z,62.87
2018-11-26T11:22:52.712Z,64.50
2018-11-26T11:25:21.585Z,60.07
2018-11-26T11:27:50.502Z,57.40
2018-11-26T11:30:22.884Z,66.10
2018-11-26T11:32:51.633Z,60.27
2018-11-26T11:35:20.376Z,43.83
2018-11-26T11:37:49.799Z,69.67
2018-11-26T11:40:20.351Z,59.50
2018-11-26T11:42:49.123Z,41.40
2018-11-26T11:45:17.879Z,59.60
2018-11-26T11:47:46.399Z,48.33
2018-11-26T11:50:16.161Z,56.30
2018-11-26T11:52:44.935Z,57.70
2018-11-26T11:55:16.204Z,54.00
2018-11-26T11:57:44.784Z,53.80
2018-11-26T12:00:19.784Z,47.03
2018-11-26T12:02:48.381Z,60.40
2018-11-26T12:05:16.929Z,55.97
2018-11-26T12:07:45.461Z,43.67
2018-11-26T12:10:14.144Z,49.63
2018-11-26T12:12:42.736Z,58.30
2018-11-26T12:15:13.712Z,64.47
2018-11-26T12:17:42.529Z,53.87
2018-11-26T12:20:12.129Z,54.70
2018-11-26T12:22:41.007Z,45.03
2018-11-26T12:25:10.994Z,58.37
2018-11-26T12:27:39.633Z,65.73
2018-11-26T12:30:16.037Z,66.77
2018-11-26T12:32:44.786Z,63.83
2018-11-26T12:35:13.333Z,60.17
2018-11-26T12:37:41.936Z,47.40
2018-11-26T12:40:12.761Z,63.57
2018-11-26T12:42:41.376Z,58.67
2018-11-26T12:45:15.368Z,54.30
2018-11-26T12:47:44.576Z,45.07
2018-11-26T12:50:13.116Z,62.47
2018-11-26T12:52:42.160Z,47.70
2018-11-26T12:55:12.655Z,38.67
2018-11-26T12:57:42.009Z,41.03
2018-11-26T13:00:13.764Z,52.33
2018-11-26T13:02:42.476Z,60.00
2018-11-26T13:05:14.252Z,61.43
2018-11-26T13:07:42.762Z,61.23
2018-11-26T13:10:12.387Z,41.33
2018-11-26T13:12:40.911Z,44.17
2018-11-26T13:15:11.072Z,38.40
2018-11-26T13:17:39.640Z,46.13
2018-11-26T13:20:11.881Z,46.37
2018-11-26T13:22:40.634Z,31.77
2018-11-26T13:25:12.000Z,58.00
2018-11-26T13:27:41.901Z,47.80
2018-11-26T13:30:13.608Z,47.30
2018-11-26T13:32:42.513Z,44.23
2018-11-26T13:35:12.340Z,53.27
2018-11-26T13:37:40.933Z,54.77
2018-11-26T13:40:11.918Z,45.60
2018-11-26T13:42:40.631Z,53.93
2018-11-26T13:45:11.562Z,52.70
2018-11-26T13:47:40.530Z,41.47
2018-11-26T13:50:25.055Z,37.23
2018-11-26T13:52:53.687Z,42.90
2018-11-26T13:55:22.296Z,46.73
2018-11-26T13:57:50.865Z,48.87
2018-11-26T14:00:19.449Z,49.97
2018-11-26T14:02:47.989Z,45.10
2018-11-26T14:05:17.446Z,43.37
2018-11-26T14:07:46.641Z,37.20
2018-11-26T14:10:23.129Z,46.53
2018-11-26T14:12:54.037Z,48.53
2018-11-26T14:15:22.647Z,62.30
2018-11-26T14:17:51.215Z,44.70
2018-11-26T14:20:19.919Z,40.80
2018-11-26T14:22:48.438Z,54.07
2018-11-26T14:25:18.006Z,60.67
2018-11-26T14:27:47.093Z,57.77
2018-11-26T14:30:20.850Z,48.27
2018-11-26T14:32:50.314Z,39.77
2018-11-26T14:35:18.954Z,42.67
2018-11-26T14:37:49.645Z,52.40
2018-11-26T14:40:28.964Z,59.83
2018-11-26T14:42:57.666Z,38.97
2018-11-26T14:45:26.264Z,48.03
2018-11-26T14:47:54.878Z,54.83
2018-11-26T14:50:23.425Z,52.97
2018-11-26T14:52:58.164Z,48.83
2018-11-26T14:55:27.997Z,47.00
2018-11-26T14:57:57.210Z,53.63
2018-11-26T15:00:25.765Z,48.57
2018-11-26T15:02:54.353Z,38.03
2018-11-26T15:05:22.922Z,42.50
2018-11-26T15:07:51.484Z,56.27
2018-11-26T15:10:21.287Z,44.80
2018-11-26T15:12:49.872Z,33.33
2018-11-26T15:15:22.938Z,47.80
2018-11-26T15:17:51.652Z,41.33
2018-11-26T15:20:22.126Z,52.77
2018-11-26T15:22:51.293Z,39.63
2018-11-26T15:25:21.026Z,42.50
2018-11-26T15:27:49.925Z,45.50
2018-11-26T15:30:19.633Z,33.10
2018-11-26T15:32:48.260Z,42.53
2018-11-26T15:35:17.824Z,49.13
2018-11-26T15:37:46.487Z,49.50
2018-11-26T15:40:16.122Z,42.20
2018-11-26T15:42:44.765Z,55.43
2018-11-26T15:45:16.408Z,41.37
2018-11-26T15:47:45.107Z,45.57
2018-11-26T15:50:13.746Z,38.60
2018-11-26T15:52:42.449Z,47.20
2018-11-26T15:55:16.221Z,51.23
2018-11-26T15:57:44.784Z,51.70
2018-11-26T16:00:16.218Z,45.53
2018-11-26T16:02:44.905Z,45.57
2018-11-26T16:05:15.555Z,50.77
2018-11-26T16:07:44.412Z,40.77
2018-11-26T16:10:14.029Z,55.70
2018-11-26T16:12:42.992Z,46.07
2018-11-26T16:15:15.892Z,39.37
2018-11-26T16:17:44.397Z,57.83
2018-11-26T16:20:15.310Z,45.80
2018-11-26T16:22:43.915Z,55.27
2018-11-26T16:25:15.754Z,43.73
2018-11-26T16:27:44.292Z,47.70
2018-11-26T16:30:14.727Z,38.87
2018-11-26T16:32:44.710Z,51.13
2018-11-26T16:35:16.657Z,51.50
2018-11-26T16:37:45.195Z,38.10
2018-11-26T16:40:16.607Z,53.90
2018-11-26T16:42:45.253Z,34.13
2018-11-26T16:45:17.775Z,62.07
2018-11-26T16:47:47.401Z,54.73
2018-11-26T16:50:17.069Z,48.90
2018-11-26T16:52:45.713Z,55.43
2018-11-26T16:55:15.020Z,54.83
2018-11-26T16:57:43.752Z,46.67
2018-11-26T17:00:14.487Z,45.23
2018-11-26T17:02:43.057Z,51.50
2018-11-26T17:05:13.098Z,44.57
2018-11-26T17:07:41.709Z,55.97
2018-11-26T17:10:11.299Z,54.47
2018-11-26T17:12:40.231Z,40.07
2018-11-26T17:15:16.358Z,52.37
2018-11-26T17:17:45.022Z,34.90
2018-11-26T17:20:16.000Z,47.80
2018-11-26T17:22:44.744Z,33.90
2018-11-26T17:25:14.392Z,60.27
2018-11-26T17:27:43.571Z,50.37
2018-11-26T17:30:14.173Z,48.97
2018-11-26T17:32:42.849Z,41.50
2018-11-26T17:35:12.623Z,37.47
2018-11-26T17:37:43.001Z,49.63
2018-11-26T17:40:15.017Z,43.90
2018-11-26T17:42:43.756Z,47.30
2018-11-26T17:45:13.306Z,47.00
2018-11-26T17:47:43.951Z,38.20
2018-11-26T17:50:25.418Z,30.00
2018-11-26T17:52:53.976Z,37.47
2018-11-26T17:55:22.493Z,44.40
2018-11-26T17:57:50.988Z,36.50
2018-11-26T18:00:23.916Z,42.20
2018-11-26T18:02:52.550Z,34.97
2018-11-26T18:05:22.479Z,42.20
2018-11-26T18:07:53.107Z,37.43
2018-11-26T18:10:21.649Z,37.63
2018-11-26T18:12:50.203Z,39.23
2018-11-26T18:15:18.806Z,39.83
2018-11-26T18:17:47.500Z,31.03
2018-11-26T18:20:18.396Z,26.17
2018-11-26T18:22:48.099Z,37.07
2018-11-26T18:25:17.092Z,24.60
2018-11-26T18:27:52.298Z,35.80
2018-11-26T18:30:24.572Z,42.87
2018-11-26T18:32:53.152Z,32.17
2018-11-26T18:35:21.806Z,19.50
2018-11-26T18:37:50.338Z,43.27
2018-11-26T18:40:18.990Z,25.17
2018-11-26T18:42:47.507Z,28.23
2018-11-26T18:45:18.157Z,33.50
2018-11-26T18:47:47.368Z,24.70
2018-11-26T18:50:19.805Z,32.60
2018-11-26T18:52:49.145Z,35.13
2018-11-26T18:55:17.838Z,39.63
2018-11-26T18:57:46.418Z,37.33
2018-11-26T19:00:17.995Z,35.27
2018-11-26T19:02:46.597Z,36.53
2018-11-26T19:05:15.887Z,44.53
2018-11-26T19:07:44.489Z,32.77
2018-11-26T19:10:14.170Z,37.47
2018-11-26T19:12:43.413Z,42.00
2018-11-26T19:15:14.769Z,43.80
2018-11-26T19:17:43.378Z,30.27
2018-11-26T19:20:12.711Z,30.17
2018-11-26T19:22:41.736Z,46.47
2018-11-26T19:25:11.887Z,38.87
2018-11-26T19:27:40.441Z,36.13
2018-11-26T19:30:11.479Z,36.77
2018-11-26T19:32:40.164Z,31.43
2018-11-26T19:35:10.245Z,34.87
2018-11-26T19:37:38.815Z,23.10
2018-11-26T19:40:11.610Z,38.05
2018-11-26T19:42:40.309Z,31.70
2018-11-26T19:45:15.064Z,38.50
2018-11-26T19:47:43.750Z,40.83
2018-11-26T19:50:14.501Z,32.90
2018-11-26T19:52:43.194Z,39.17
2018-11-26T19:55:18.200Z,33.03
2018-11-26T19:57:46.785Z,36.03
2018-11-26T20:00:25.140Z,35.70
2018-11-26T20:05:01.127Z,26.50
2018-11-26T20:07:29.698Z,28.57
2018-11-26T20:09:58.323Z,36.13
2018-11-26T20:12:26.860Z,38.37
2018-11-26T20:14:55.368Z,41.47
2018-11-26T20:17:23.916Z,38.97
2018-11-26T20:19:52.460Z,43.47
2018-11-26T20:22:21.022Z,33.47
2018-11-26T20:24:49.686Z,45.53
2018-11-26T20:27:18.202Z,35.93
2018-11-26T20:29:46.751Z,42.87
2018-11-26T20:32:15.297Z,36.53
2018-11-26T20:34:43.924Z,43.23
2018-11-26T20:37:12.458Z,45.63
2018-11-26T20:39:41.022Z,55.23
2018-11-26T20:42:09.608Z,45.43
2018-11-26T20:44:38.120Z,44.07
2018-11-26T20:47:07.262Z,44.23
2018-11-26T20:49:35.906Z,40.57
2018-11-26T20:52:04.444Z,46.93
2018-11-26T20:54:33.689Z,44.70
2018-11-26T20:57:02.229Z,40.10
2018-11-26T20:59:30.897Z,38.03
2018-11-26T21:01:59.471Z,40.93
2018-11-26T21:04:28.101Z,44.10
2018-11-26T21:06:56.716Z,32.30
2018-11-26T21:09:25.221Z,50.07
2018-11-26T21:11:53.748Z,62.70
2018-11-26T21:14:22.439Z,46.33
2018-11-26T21:16:51.033Z,44.57
2018-11-26T21:19:19.711Z,48.07
2018-11-26T21:21:48.314Z,50.17
2018-11-26T21:24:16.876Z,58.83
2018-11-26T21:26:45.474Z,47.13
2018-11-26T21:29:14.069Z,59.57
2018-11-26T21:31:42.673Z,39.50
2018-11-26T21:34:11.255Z,44.10
2018-11-26T21:36:39.777Z,46.93
2018-11-26T21:39:10.176Z,52.13
2018-11-26T21:41:38.742Z,51.97
2018-11-26T21:44:07.288Z,34.07
2018-11-26T21:46:35.901Z,42.43
2018-11-26T21:49:04.561Z,38.87
2018-11-26T21:51:33.478Z,37.63
2018-11-26T21:54:01.756Z,31.00
2018-11-26T21:56:30.314Z,41.30
2018-11-26T21:58:58.884Z,44.63
2018-11-26T22:01:27.427Z,36.37
2018-11-26T22:03:56.029Z,36.13
2018-11-26T22:06:24.630Z,41.03
2018-11-26T22:08:53.327Z,40.80
2018-11-26T22:11:21.884Z,32.37
2018-11-26T22:13:50.448Z,38.60
2018-11-26T22:16:18.984Z,35.97
2018-11-26T22:18:47.529Z,32.10
2018-11-26T22:21:16.082Z,34.70
2018-11-26T22:23:44.676Z,34.80
2018-11-26T22:26:13.188Z,54.63
2018-11-26T22:28:41.975Z,51.70
2018-11-26T22:31:10.517Z,42.17
2018-11-26T22:33:39.056Z,34.93
2018-11-26T22:36:07.733Z,38.60
2018-11-26T22:38:36.381Z,37.80
2018-11-26T22:41:05.508Z,29.03
2018-11-26T22:43:34.076Z,32.07
2018-11-26T22:46:02.722Z,36.30
2018-11-26T22:48:31.272Z,33.93
2018-11-26T22:50:59.956Z,30.93
2018-11-26T22:53:28.578Z,33.70
2018-11-26T22:55:57.157Z,30.63
2018-11-26T22:58:25.773Z,28.20
2018-11-26T23:00:55.093Z,28.80
2018-11-26T23:03:25.824Z,38.40
2018-11-26T23:05:54.380Z,34.17
2018-11-26T23:08:22.921Z,36.63
2018-11-26T23:10:51.425Z,31.80
2018-11-26T23:13:19.982Z,33.87
2018-11-26T23:15:48.525Z,26.93
2018-11-26T23:18:17.057Z,30.17
2018-11-26T23:20:45.612Z,30.50
2018-11-26T23:23:14.172Z,25.10
2018-11-26T23:25:42.701Z,28.33
2018-11-26T23:28:11.258Z,32.10
2018-11-26T23:30:39.849Z,32.53
2018-11-26T23:33:08.753Z,28.93
2018-11-26T23:35:37.237Z,41.77
2018-11-26T23:38:05.820Z,25.23
2018-11-26T23:40:34.803Z,36.43
2018-11-26T23:43:03.328Z,27.00
2018-11-26T23:45:31.907Z,31.33
2018-11-26T23:48:00.532Z,33.50
2018-11-26T23:50:29.064Z,37.03
2018-11-26T23:52:57.613Z,25.83
2018-11-26T23:55:26.109Z,33.63
2018-11-26T23:57:54.658Z,26.87
